Time;durP1;ratioP1;P1;durP2;ratioP2;P2;SDS_P1;SDS_P2;PMS_P1;PMS_P2;Temp;Humidity;BMP_temperature;BMP_pressure;BME280_temperature;BME280_humidity;BME280_pressure;Samples;Min_cycle;Max_cycle;Signal;HPM_P1;HPM_P2
2022/08/01 00:00:22;;;;;;;7.88;7.10;;;;;;;24.39;55.05;99478.47;5025450;28;20034;-72
2022/08/01 00:02:48;;;;;;;11.70;7.60;;;;;;;24.24;55.54;99477.50;5024633;28;20256;-72
2022/08/01 00:05:13;;;;;;;8.70;7.80;;;;;;;24.29;55.60;99464.84;5024867;28;20322;-71
2022/08/01 00:07:39;;;;;;;8.82;7.88;;;;;;;24.48;54.89;99471.50;5023444;28;20072;-71
2022/08/01 00:10:08;;;;;;;9.35;7.70;;;;;;;24.27;55.58;99475.13;5023518;28;20044;-74
2022/08/01 00:12:33;;;;;;;10.45;7.72;;;;;;;24.25;55.67;99463.69;5021918;28;20026;-71
2022/08/01 00:14:59;;;;;;;8.38;7.47;;;;;;;24.17;55.82;99456.06;5009131;28;20041;-74
2022/08/01 00:17:25;;;;;;;8.88;7.97;;;;;;;24.38;55.27;99465.19;5023963;28;20037;-74
2022/08/01 00:19:51;;;;;;;8.68;7.22;;;;;;;24.42;55.14;99469.00;5007393;28;20025;-74
2022/08/01 00:22:16;;;;;;;8.55;7.75;;;;;;;24.36;55.23;99456.50;5023636;28;20113;-72
2022/08/01 00:24:42;;;;;;;10.73;7.03;;;;;;;24.38;55.29;99460.59;5021898;28;20088;-70
2022/08/01 00:27:07;;;;;;;9.63;7.28;;;;;;;24.08;56.39;99471.13;5022355;28;20041;-71
2022/08/01 00:29:32;;;;;;;9.32;7.45;;;;;;;24.13;56.50;99457.66;5024645;28;20335;-71
2022/08/01 00:31:58;;;;;;;9.27;7.55;;;;;;;24.27;55.99;99464.28;5023533;28;20026;-74
2022/08/01 00:34:23;;;;;;;7.72;6.82;;;;;;;24.29;56.54;99464.84;5025109;28;20052;-74
2022/08/01 00:36:49;;;;;;;7.93;7.03;;;;;;;24.34;56.24;99472.19;5024192;28;20060;-74
2022/08/01 00:39:14;;;;;;;7.45;6.75;;;;;;;24.21;56.46;99465.28;5022117;28;20033;-71
2022/08/01 00:41:40;;;;;;;8.43;6.53;;;;;;;24.19;56.91;99465.56;5024384;28;20037;-72
2022/08/01 00:44:05;;;;;;;8.80;7.22;;;;;;;24.14;56.95;99470.09;5021649;28;20029;-74
2022/08/01 00:46:32;;;;;;;7.65;6.95;;;;;;;23.98;57.24;99441.28;5017698;28;20066;-74
2022/08/01 00:48:58;;;;;;;9.60;7.05;;;;;;;23.77;58.25;99462.69;5017938;28;20030;-74
2022/08/01 00:51:25;;;;;;;7.97;7.18;;;;;;;23.90;58.33;99456.06;5015022;28;20646;-72
2022/08/01 00:53:51;;;;;;;8.13;7.35;;;;;;;23.95;58.16;99455.31;5003155;28;20085;-72
2022/08/01 00:56:18;;;;;;;8.07;7.28;;;;;;;23.92;58.05;99448.50;5003558;28;20441;-72
2022/08/01 00:58:44;;;;;;;8.00;7.30;;;;;;;23.97;58.05;99458.59;5004149;28;20084;-72
2022/08/01 01:01:09;;;;;;;9.57;7.93;;;;;;;23.95;58.19;99460.72;5001255;28;20219;-74
2022/08/01 01:03:35;;;;;;;10.40;7.55;;;;;;;24.05;57.79;99447.31;5001782;28;20026;-71
2022/08/01 01:06:13;;;;;;;9.38;7.78;;;;;;;24.04;57.68;99460.00;5003287;28;20311;-72
2022/08/01 01:08:51;;;;;;;7.82;7.03;;;;;;;24.11;57.33;99459.78;5002156;28;20038;-74
2022/08/01 01:11:31;;;;;;;8.68;7.47;;;;;;;24.31;56.41;99456.47;5001499;28;20380;-74
2022/08/01 01:14:13;;;;;;;7.63;6.93;;;;;;;24.14;55.43;99453.88;5005240;28;20031;-71
2022/08/01 01:16:42;;;;;;;7.93;7.10;;;;;;;24.01;54.80;99460.53;5004382;28;20026;-74
2022/08/01 01:19:13;;;;;;;9.35;7.00;;;;;;;24.00;54.55;99461.59;5002898;28;20113;-71
2022/08/01 01:21:41;;;;;;;10.23;6.93;;;;;;;24.00;54.21;99463.47;5004042;28;20034;-74
2022/08/01 01:24:26;;;;;;;9.57;7.10;;;;;;;24.04;53.71;99461.91;5003153;28;20042;-75
2022/08/01 01:26:51;;;;;;;;;;;;;;;24.08;53.96;99453.00;5005418;28;20038;-72
2022/08/01 01:29:35;;;;;;;8.73;6.45;;;;;;;24.13;53.92;99458.47;5002797;28;19918;-74
2022/08/01 01:32:06;;;;;;;9.63;6.95;;;;;;;23.98;54.25;99457.50;5002373;28;20105;-72
2022/08/01 01:34:38;;;;;;;8.90;6.82;;;;;;;23.96;53.84;99455.06;5000715;28;20077;-74
2022/08/01 01:37:09;;;;;;;9.18;7.43;;;;;;;24.05;53.44;99450.81;5003612;28;20038;-72
2022/08/01 01:39:36;;;;;;;10.68;7.15;;;;;;;23.86;53.63;99453.06;5007004;28;20035;-74
2022/08/01 01:42:04;;;;;;;10.95;6.72;;;;;;;23.57;54.19;99438.16;5005576;28;20037;-72
2022/08/01 01:44:31;;;;;;;9.02;7.07;;;;;;;23.56;53.97;99450.84;5016977;28;20062;-72
2022/08/01 01:46:59;;;;;;;7.97;7.15;;;;;;;23.56;53.97;99448.16;5017458;28;20040;-74
2022/08/01 01:49:27;;;;;;;8.20;7.03;;;;;;;23.54;54.00;99449.44;5023036;28;20041;-72
2022/08/01 01:51:56;;;;;;;8.88;7.05;;;;;;;23.46;54.01;99453.41;5021401;28;20059;-72
2022/08/01 01:54:24;;;;;;;7.93;6.93;;;;;;;23.30;54.05;99430.00;5026904;28;20105;-72
2022/08/01 01:56:51;;;;;;;10.45;7.15;;;;;;;23.39;54.03;99436.59;5023384;28;20018;-72
2022/08/01 01:59:21;;;;;;;7.47;6.40;;;;;;;23.43;54.18;99445.00;5022987;28;20343;-74
2022/08/01 02:01:52;;;;;;;10.73;7.10;;;;;;;23.47;54.17;99451.53;5021448;28;20260;-72
2022/08/01 02:04:20;;;;;;;7.88;6.93;;;;;;;23.38;54.48;99447.66;5022822;28;20339;-72
2022/08/01 02:06:46;;;;;;;9.48;6.88;;;;;;;23.58;53.80;99455.19;5004569;28;20022;-74
2022/08/01 02:09:16;;;;;;;8.70;7.20;;;;;;;23.44;54.00;99438.53;5022696;28;20038;-74
2022/08/01 02:11:43;;;;;;;8.85;7.75;;;;;;;23.44;54.03;99441.22;5022211;28;20033;-74
2022/08/01 02:14:10;;;;;;;8.02;6.85;;;;;;;23.35;54.04;99448.16;5022271;28;20037;-72
2022/08/01 02:16:39;;;;;;;7.30;6.40;;;;;;;23.21;54.22;99455.81;5021840;28;20041;-72
2022/08/01 02:19:05;;;;;;;11.05;6.82;;;;;;;23.34;53.70;99451.91;5023544;28;20071;-74
2022/08/01 02:21:46;;;;;;;7.55;6.60;;;;;;;23.42;53.80;99459.56;5003443;28;20025;-74
2022/08/01 02:24:39;;;;;;;9.95;6.88;;;;;;;23.36;53.75;99463.28;5004119;28;20106;-72
2022/08/01 02:27:09;;;;;;;9.48;6.78;;;;;;;23.29;54.09;99463.47;5003110;28;20049;-72
2022/08/01 02:29:45;;;;;;;7.75;6.95;;;;;;;23.40;53.82;99457.13;5003720;28;20025;-72
2022/08/01 02:32:32;;;;;;;12.18;7.45;;;;;;;23.23;54.33;99456.38;5021898;28;20165;-74
2022/08/01 02:35:01;;;;;;;11.35;7.57;;;;;;;23.26;54.17;99450.47;5022807;28;20022;-74
2022/08/01 02:37:28;;;;;;;9.80;7.22;;;;;;;23.07;54.60;99431.06;5021948;28;20045;-72
2022/08/01 02:39:54;;;;;;;9.90;7.03;;;;;;;23.15;54.61;99454.13;5021584;28;20033;-71
2022/08/01 02:42:23;;;;;;;9.73;6.97;;;;;;;23.18;54.29;99450.91;5022414;28;20104;-74
2022/08/01 02:44:51;;;;;;;8.93;6.28;;;;;;;23.12;54.06;99435.72;5022769;28;20033;-72
2022/08/01 02:47:20;;;;;;;9.00;7.47;;;;;;;23.20;53.64;99449.59;5021990;28;20108;-72
2022/08/01 02:49:48;;;;;;;8.48;6.57;;;;;;;23.29;53.53;99441.88;5026407;28;20041;-74
2022/08/01 02:52:16;;;;;;;10.32;5.90;;;;;;;23.14;53.12;99436.28;5008365;28;20036;-74
2022/08/01 02:54:45;;;;;;;8.98;6.28;;;;;;;23.12;53.06;99439.22;5025121;28;20025;-74
2022/08/01 02:57:12;;;;;;;7.78;5.53;;;;;;;23.21;52.80;99451.22;5028551;28;20037;-74
2022/08/01 02:59:39;;;;;;;8.13;5.35;;;;;;;23.14;52.67;99449.78;5026271;28;20230;-71
2022/08/01 03:02:06;;;;;;;6.22;5.30;;;;;;;23.27;52.15;99456.69;5026315;28;20053;-74
2022/08/01 03:04:35;;;;;;;8.32;5.40;;;;;;;23.23;52.31;99457.19;5026233;28;20030;-74
2022/08/01 03:07:04;;;;;;;8.93;5.30;;;;;;;23.00;52.25;99438.53;5025770;28;20037;-72
2022/08/01 03:09:33;;;;;;;7.93;5.63;;;;;;;23.02;52.73;99451.78;5025850;28;20033;-74
2022/08/01 03:12:02;;;;;;;7.55;5.72;;;;;;;23.09;52.32;99450.53;5024282;28;20104;-72
2022/08/01 03:14:30;;;;;;;10.95;5.43;;;;;;;22.99;52.56;99455.00;5024039;28;20325;-72
2022/08/01 03:16:59;;;;;;;11.75;5.57;;;;;;;23.04;52.57;99455.88;5024822;28;20334;-71
2022/08/01 03:19:26;;;;;;;5.95;5.35;;;;;;;23.08;52.38;99454.31;5025633;28;20042;-74
2022/08/01 03:21:52;;;;;;;8.25;4.93;;;;;;;23.09;52.30;99452.44;5025459;28;20026;-72
2022/08/01 03:24:19;;;;;;;9.18;5.00;;;;;;;23.03;52.40;99450.72;5024081;28;20216;-75
2022/08/01 03:26:45;;;;;;;7.45;4.90;;;;;;;23.02;52.30;99457.19;5006955;28;20139;-72
2022/08/01 03:29:17;;;;;;;5.68;5.05;;;;;;;23.12;52.05;99455.44;5007622;28;20223;-75
2022/08/01 03:31:44;;;;;;;8.57;5.07;;;;;;;23.18;51.92;99445.50;5025296;28;20177;-72
2022/08/01 03:34:10;;;;;;;7.03;5.20;;;;;;;23.27;51.74;99452.09;5025092;28;20049;-72
2022/08/01 03:36:47;;;;;;;15.80;5.40;;;;;;;23.30;51.20;99451.59;5024800;28;20093;-72
2022/08/01 03:39:15;;;;;;;9.32;4.85;;;;;;;23.23;51.56;99453.69;5007215;28;20034;-74
2022/08/01 03:41:46;;;;;;;4.93;4.43;;;;;;;23.24;51.30;99447.22;5026083;28;20096;-74
2022/08/01 03:44:15;;;;;;;6.72;5.45;;;;;;;23.17;51.54;99452.81;5023625;28;20465;-74
2022/08/01 03:46:45;;;;;;;8.73;5.03;;;;;;;22.99;51.47;99415.31;5024477;28;20104;-72
2022/08/01 03:49:16;;;;;;;6.18;4.88;;;;;;;23.16;51.44;99437.66;5025414;28;20038;-72
2022/08/01 03:51:47;;;;;;;6.40;4.72;;;;;;;23.09;51.72;99444.31;5008191;28;20244;-72
2022/08/01 03:54:15;;;;;;;6.55;4.30;;;;;;;22.91;52.10;99434.63;5023971;28;20624;-71
2022/08/01 03:56:42;;;;;;;6.45;4.70;;;;;;;23.11;51.78;99453.00;5024396;28;20219;-71
2022/08/01 03:59:09;;;;;;;7.93;4.63;;;;;;;23.06;51.67;99444.81;5023845;28;20218;-75
2022/08/01 04:01:35;;;;;;;7.88;4.57;;;;;;;23.16;51.32;99448.47;5024818;28;20579;-74
2022/08/01 04:04:01;;;;;;;7.40;4.57;;;;;;;23.09;51.23;99445.13;5024617;28;20030;-74
2022/08/01 04:06:26;;;;;;;7.13;4.70;;;;;;;23.10;51.29;99448.66;5023696;28;20042;-71
2022/08/01 04:08:55;;;;;;;18.63;4.70;;;;;;;23.07;51.44;99457.25;5023036;28;20037;-75
2022/08/01 04:11:23;;;;;;;6.88;4.30;;;;;;;23.16;51.13;99453.06;5024467;28;20022;-72
2022/08/01 04:13:49;;;;;;;6.82;4.80;;;;;;;23.15;51.06;99452.22;5023901;28;20040;-72
2022/08/01 04:16:14;;;;;;;9.25;4.47;;;;;;;23.20;50.97;99454.19;5024834;28;20037;-72
2022/08/01 04:18:40;;;;;;;5.68;4.10;;;;;;;23.15;51.29;99459.53;5023749;28;20040;-74
2022/08/01 04:21:05;;;;;;;7.30;5.18;;;;;;;23.30;50.80;99461.59;5005826;28;20331;-74
2022/08/01 04:23:32;;;;;;;5.93;4.90;;;;;;;23.32;50.75;99464.88;5008217;28;20037;-74
2022/08/01 04:26:02;;;;;;;7.95;4.57;;;;;;;23.38;50.57;99461.16;5024593;28;20022;-74
2022/08/01 04:28:31;;;;;;;9.05;4.82;;;;;;;23.22;50.26;99431.25;5016785;28;20104;-74
2022/08/01 04:30:59;;;;;;;9.00;4.03;;;;;;;23.43;49.59;99462.03;5021367;28;20072;-72
2022/08/01 04:33:27;;;;;;;6.03;4.20;;;;;;;23.43;49.43;99461.22;5025145;28;20615;-74
2022/08/01 04:35:52;;;;;;;8.48;3.95;;;;;;;23.57;48.88;99473.28;5023902;28;20226;-73
2022/08/01 04:38:20;;;;;;;5.78;3.53;;;;;;;23.70;48.47;99470.19;5024646;28;20045;-74
2022/08/01 04:40:48;;;;;;;6.40;3.67;;;;;;;23.63;48.46;99457.94;5023983;28;20362;-71
2022/08/01 04:43:14;;;;;;;8.50;4.05;;;;;;;23.88;47.64;99469.03;5021414;28;20034;-71
2022/08/01 04:45:40;;;;;;;5.55;4.20;;;;;;;23.96;47.01;99463.19;5021738;28;20096;-75
2022/08/01 04:48:08;;;;;;;5.30;3.92;;;;;;;24.15;46.64;99469.84;5025956;28;20088;-74
2022/08/01 04:50:34;;;;;;;8.98;4.20;;;;;;;24.37;46.55;99477.09;5022237;28;20036;-74
2022/08/01 04:53:02;;;;;;;7.50;3.67;;;;;;;24.55;45.83;99473.16;5022610;28;20068;-74
2022/08/01 04:55:28;;;;;;;4.50;3.60;;;;;;;24.72;45.44;99469.22;5023165;28;20053;-71
2022/08/01 04:57:53;;;;;;;6.15;3.95;;;;;;;24.87;45.10;99473.09;5006635;28;20026;-72
2022/08/01 05:00:19;;;;;;;4.32;3.80;;;;;;;25.06;44.11;99464.31;5022878;28;20029;-72
2022/08/01 05:02:46;;;;;;;4.40;3.42;;;;;;;25.43;43.34;99468.81;5023728;28;20041;-72
2022/08/01 05:05:11;;;;;;;6.57;3.63;;;;;;;25.36;43.36;99477.19;5022093;28;20036;-74
2022/08/01 05:07:37;;;;;;;6.32;3.67;;;;;;;25.40;42.81;99472.06;5005576;28;20026;-71
2022/08/01 05:10:04;;;;;;;5.05;3.63;;;;;;;25.61;42.49;99465.63;5023605;28;20208;-71
2022/08/01 05:12:31;;;;;;;5.40;3.35;;;;;;;25.68;41.65;99436.38;5022511;28;20319;-75
2022/08/01 05:14:57;;;;;;;4.45;2.90;;;;;;;25.94;41.28;99467.06;5004154;28;20029;-72
2022/08/01 05:17:22;;;;;;;5.40;3.47;;;;;;;25.92;40.99;99458.38;5023085;28;20096;-72
2022/08/01 05:19:48;;;;;;;6.25;3.17;;;;;;;25.86;41.44;99464.88;5022444;28;20315;-74
2022/08/01 05:22:13;;;;;;;3.75;2.92;;;;;;;26.09;40.47;99477.97;5022708;28;20037;-72
2022/08/01 05:24:40;;;;;;;3.88;3.20;;;;;;;25.98;39.86;99421.22;5024034;28;20038;-72
2022/08/01 05:27:07;;;;;;;7.63;2.67;;;;;;;26.31;39.59;99464.13;5023091;28;20040;-71
2022/08/01 05:29:33;;;;;;;5.70;2.97;;;;;;;26.51;39.50;99466.06;5005744;28;20041;-74
2022/08/01 05:31:59;;;;;;;3.83;3.15;;;;;;;26.66;39.10;99457.88;5024589;28;20094;-74
2022/08/01 05:34:25;;;;;;;7.28;2.90;;;;;;;26.69;39.16;99462.75;5021597;28;20308;-74
2022/08/01 05:36:51;;;;;;;7.03;2.83;;;;;;;27.08;38.86;99462.19;5023283;28;20048;-72
2022/08/01 05:39:16;;;;;;;4.88;2.90;;;;;;;26.92;38.86;99461.34;5022041;28;20041;-72
2022/08/01 05:41:42;;;;;;;4.22;3.25;;;;;;;26.97;38.35;99461.38;5022279;28;20068;-72
2022/08/01 05:44:08;;;;;;;4.07;2.72;;;;;;;26.89;37.68;99461.91;5022646;28;20033;-72
2022/08/01 05:46:34;;;;;;;7.15;2.65;;;;;;;26.83;37.63;99457.56;5021090;28;20223;-72
2022/08/01 05:49:02;;;;;;;7.28;2.75;;;;;;;26.76;38.00;99467.91;5020758;28;20045;-72
2022/08/01 05:51:28;;;;;;;5.30;2.90;;;;;;;27.03;36.30;99460.25;5023276;28;20045;-72
2022/08/01 05:53:54;;;;;;;9.43;3.15;;;;;;;27.02;37.14;99466.78;5003925;28;20119;-72
2022/08/01 05:56:21;;;;;;;5.93;2.05;;;;;;;27.39;35.63;99457.44;5021288;28;20228;-74
2022/08/01 05:58:46;;;;;;;6.15;2.22;;;;;;;27.52;35.26;99464.16;5021498;28;20200;-72
2022/08/01 06:01:12;;;;;;;2.83;2.25;;;;;;;27.63;35.08;99458.41;5024260;28;20038;-74
2022/08/01 06:03:37;;;;;;;5.57;2.10;;;;;;;27.88;35.18;99462.06;5003888;28;20330;-72
2022/08/01 06:06:04;;;;;;;4.50;2.30;;;;;;;28.22;33.84;99451.22;5023340;28;20033;-72
2022/08/01 06:08:30;;;;;;;2.25;2.05;;;;;;;27.98;32.90;99448.41;5004407;28;20382;-72
2022/08/01 06:10:57;;;;;;;6.22;2.08;;;;;;;28.22;33.09;99443.88;5022062;28;20053;-72
2022/08/01 06:13:22;;;;;;;4.90;1.98;;;;;;;28.37;32.53;99442.97;5022300;28;20049;-72
2022/08/01 06:15:48;;;;;;;5.50;2.03;;;;;;;28.01;32.42;99449.72;5021941;28;20056;-72
2022/08/01 06:18:14;;;;;;;6.15;2.03;;;;;;;27.99;32.67;99428.25;5022801;28;20265;-74
2022/08/01 06:20:40;;;;;;;4.53;2.00;;;;;;;28.30;32.05;99445.19;5023245;28;20034;-73
2022/08/01 06:23:05;;;;;;;8.68;2.42;;;;;;;28.31;31.57;99443.28;5021010;28;20204;-72
2022/08/01 06:25:31;;;;;;;8.35;2.38;;;;;;;28.18;31.26;99439.28;5021053;28;20042;-72
2022/08/01 06:27:57;;;;;;;9.15;2.03;;;;;;;28.44;30.86;99426.28;5020847;28;20323;-75
2022/08/01 06:30:23;;;;;;;8.02;2.08;;;;;;;28.87;31.42;99435.41;5022691;28;20717;-74
2022/08/01 06:32:48;;;;;;;5.07;2.28;;;;;;;29.01;30.55;99439.06;5016583;28;20243;-75
2022/08/01 06:35:14;;;;;;;4.35;1.85;;;;;;;29.00;30.01;99431.16;5020861;28;20046;-74
2022/08/01 06:37:40;;;;;;;2.78;1.88;;;;;;;29.03;30.04;99420.50;5021474;28;20218;-75
2022/08/01 06:40:08;;;;;;;4.47;1.92;;;;;;;28.71;30.45;99410.19;5004362;28;20045;-72
2022/08/01 06:42:37;;;;;;;5.97;2.10;;;;;;;28.93;30.57;99429.59;5022174;28;20345;-74
2022/08/01 06:45:09;;;;;;;4.72;2.17;;;;;;;29.01;30.10;99428.16;5021841;28;20105;-75
2022/08/01 06:47:35;;;;;;;7.97;2.17;;;;;;;29.33;29.98;99422.03;5020002;28;20274;-72
2022/08/01 06:50:01;;;;;;;10.48;1.77;;;;;;;29.42;29.06;99422.19;5023643;28;20331;-75
2022/08/01 06:52:26;;;;;;;5.28;1.60;;;;;;;29.31;29.00;99420.72;5020662;28;20036;-72
2022/08/01 06:54:51;;;;;;;5.45;1.55;;;;;;;28.92;28.43;99427.16;5021714;28;20337;-71
2022/08/01 06:57:17;;;;;;;6.85;1.67;;;;;;;29.10;28.88;99411.97;5021317;28;20089;-75
2022/08/01 06:59:43;;;;;;;7.72;2.35;;;;;;;29.35;28.63;99406.19;5020354;28;20053;-72
2022/08/01 07:02:09;;;;;;;6.18;2.15;;;;;;;29.20;28.91;99395.50;5004255;28;20034;-72
2022/08/01 07:04:35;;;;;;;5.60;1.80;;;;;;;29.34;27.99;99407.31;5026957;28;20468;-72
2022/08/01 07:07:00;;;;;;;7.28;2.15;;;;;;;29.41;28.39;99388.66;5031749;28;20052;-73
2022/08/01 07:09:27;;;;;;;6.93;1.77;;;;;;;29.44;28.03;99392.75;5033024;28;20037;-72
2022/08/01 07:11:53;;;;;;;4.28;1.88;;;;;;;29.63;27.85;99400.94;5031329;28;20033;-74
2022/08/01 07:14:19;;;;;;;3.80;1.70;;;;;;;29.92;28.28;99398.81;5033357;28;20193;-74
2022/08/01 07:16:45;;;;;;;4.78;1.67;;;;;;;29.94;27.74;99390.34;5028861;28;20097;-74
2022/08/01 07:19:11;;;;;;;7.65;2.15;;;;;;;30.28;27.99;99392.81;5034186;28;20371;-75
2022/08/01 07:21:37;;;;;;;5.38;1.85;;;;;;;30.56;27.69;99397.22;5031612;28;20033;-75
2022/08/01 07:24:03;;;;;;;4.85;1.85;;;;;;;30.32;27.66;99394.66;5017072;28;20034;-72
2022/08/01 07:26:28;;;;;;;5.25;2.35;;;;;;;30.64;27.01;99379.34;5015457;28;20040;-72
2022/08/01 07:28:54;;;;;;;3.45;1.80;;;;;;;30.82;26.88;99386.63;5033885;28;20449;-75
2022/08/01 07:31:19;;;;;;;10.25;1.80;;;;;;;30.89;26.37;99372.56;5021635;28;20072;-75
2022/08/01 07:33:45;;;;;;;12.43;2.00;;;;;;;30.99;26.04;99386.81;5041157;28;20037;-72
2022/08/01 07:36:11;;;;;;;8.00;2.17;;;;;;;30.54;26.13;99374.03;5024961;28;20044;-73
2022/08/01 07:38:36;;;;;;;6.70;2.17;;;;;;;30.42;26.47;99374.53;5042995;28;20025;-72
2022/08/01 07:41:02;;;;;;;3.83;2.13;;;;;;;30.21;26.99;99370.56;5024994;28;20033;-72
2022/08/01 07:43:28;;;;;;;4.63;2.17;;;;;;;30.34;26.64;99373.31;5042833;28;20254;-72
2022/08/01 07:45:53;;;;;;;13.07;2.40;;;;;;;30.30;26.17;99374.22;5042573;28;20666;-75
2022/08/01 07:48:23;;;;;;;7.97;2.17;;;;;;;30.01;26.29;99358.84;5042769;28;20041;-75
2022/08/01 07:50:49;;;;;;;6.88;1.73;;;;;;;30.24;26.51;99354.38;5042596;28;20299;-75
2022/08/01 07:53:15;;;;;;;8.63;2.08;;;;;;;30.26;26.27;99357.63;5042826;28;20041;-75
2022/08/01 07:55:40;;;;;;;17.05;2.28;;;;;;;30.20;26.27;99367.00;5042810;28;20044;-75
2022/08/01 07:58:06;;;;;;;6.07;1.67;;;;;;;30.29;26.24;99354.28;5024354;28;20029;-75
2022/08/01 08:00:31;;;;;;;7.18;1.70;;;;;;;30.35;26.49;99363.19;5042913;28;20037;-72
2022/08/01 08:02:59;;;;;;;7.38;2.40;;;;;;;30.37;26.08;99347.31;5042904;28;20039;-72
2022/08/01 08:05:25;;;;;;;7.30;1.90;;;;;;;30.30;26.90;99358.63;5041918;28;20038;-72
2022/08/01 08:07:50;;;;;;;8.10;1.63;;;;;;;30.44;26.01;99339.53;5041347;28;20033;-74
2022/08/01 08:10:16;;;;;;;3.75;1.40;;;;;;;30.65;26.15;99359.09;5042256;28;20321;-71
2022/08/01 08:12:41;;;;;;;12.98;2.40;;;;;;;30.56;26.53;99355.41;5042346;28;20235;-72
2022/08/01 08:15:07;;;;;;;12.40;2.00;;;;;;;30.43;26.06;99346.09;5024414;28;20250;-72
2022/08/01 08:17:33;;;;;;;7.18;1.73;;;;;;;30.80;25.46;99340.47;5042250;28;20036;-72
2022/08/01 08:19:59;;;;;;;5.32;1.48;;;;;;;30.86;26.42;99332.16;5039549;28;20033;-72
2022/08/01 08:22:24;;;;;;;14.98;1.85;;;;;;;30.87;25.29;99331.03;5036225;28;20323;-72
2022/08/01 08:24:49;;;;;;;5.25;1.70;;;;;;;30.54;25.80;99331.13;5033929;28;20226;-72
2022/08/01 08:27:15;;;;;;;4.97;1.40;;;;;;;30.62;25.89;99354.25;5035694;28;20028;-72
2022/08/01 08:29:41;;;;;;;5.20;1.65;;;;;;;30.71;26.00;99345.03;5033465;28;20037;-75
2022/08/01 08:32:07;;;;;;;9.52;2.05;;;;;;;30.77;26.03;99349.28;5032892;28;20060;-72
2022/08/01 08:34:33;;;;;;;7.18;2.08;;;;;;;30.83;26.40;99354.63;5034638;28;20351;-75
2022/08/01 08:36:59;;;;;;;5.70;1.85;;;;;;;31.31;25.25;99344.88;5033482;28;20097;-72
2022/08/01 08:39:25;;;;;;;6.25;1.58;;;;;;;31.16;25.67;99342.47;5032383;28;20231;-72
2022/08/01 08:41:51;;;;;;;6.45;1.55;;;;;;;30.79;25.40;99347.03;5035318;28;20070;-75
2022/08/01 08:44:17;;;;;;;6.63;1.40;;;;;;;31.12;25.70;99336.75;5033853;28;20068;-72
2022/08/01 08:46:45;;;;;;;1.70;1.23;;;;;;;31.61;25.16;99346.09;5033556;28;20065;-72
2022/08/01 08:49:15;;;;;;;6.38;1.60;;;;;;;31.61;25.35;99351.56;5035971;28;20085;-74
2022/08/01 08:51:42;;;;;;;3.83;1.65;;;;;;;31.50;25.60;99346.66;5034616;28;20121;-74
2022/08/01 08:54:11;;;;;;;3.33;2.58;;;;;;;31.65;25.57;99346.28;5034906;28;20060;-74
2022/08/01 08:56:37;;;;;;;6.10;2.05;;;;;;;31.95;24.80;99353.75;5033614;28;20025;-72
2022/08/01 08:59:04;;;;;;;3.08;1.48;;;;;;;31.61;24.89;99340.63;5032770;28;20339;-75
2022/08/01 09:01:34;;;;;;;6.35;1.77;;;;;;;31.65;25.16;99338.88;5018514;28;20022;-73
2022/08/01 09:04:03;;;;;;;4.72;1.70;;;;;;;31.56;25.22;99334.47;5031425;28;20025;-75
2022/08/01 09:06:29;;;;;;;4.80;1.63;;;;;;;31.40;25.40;99314.88;5032945;28;20041;-75
2022/08/01 09:08:55;;;;;;;7.72;1.60;;;;;;;31.15;25.52;99318.16;5033362;28;20017;-75
2022/08/01 09:11:21;;;;;;;4.63;2.00;;;;;;;31.41;26.04;99322.75;5033815;28;20030;-72
2022/08/01 09:14:02;;;;;;;4.20;2.50;;;;;;;31.40;26.02;99334.00;5031951;28;20326;-75
2022/08/01 09:16:28;;;;;;;3.45;1.80;;;;;;;31.12;25.86;99325.81;5032451;28;20246;-75
2022/08/01 09:18:53;;;;;;;3.08;2.05;;;;;;;31.18;26.40;99312.06;5034676;28;20021;-75
2022/08/01 09:21:22;;;;;;;10.60;1.98;;;;;;;31.29;25.89;99318.97;5034157;28;20033;-72
2022/08/01 09:23:53;;;;;;;2.83;1.35;;;;;;;31.67;25.73;99322.16;5034265;28;20052;-75
2022/08/01 09:26:29;;;;;;;6.25;2.08;;;;;;;31.62;25.94;99323.06;5034082;28;20345;-72
2022/08/01 09:28:55;;;;;;;5.38;1.90;;;;;;;31.39;25.64;99310.50;5034475;28;20381;-75
2022/08/01 09:31:20;;;;;;;7.60;1.95;;;;;;;31.40;25.62;99312.13;5034232;28;20045;-73
2022/08/01 09:34:03;;;;;;;7.88;1.63;;;;;;;31.37;25.98;99310.00;5034040;28;20018;-75
2022/08/01 09:36:51;;;;;;;8.57;2.17;;;;;;;31.06;26.61;99312.56;5034288;28;20048;-73
2022/08/01 09:39:21;;;;;;;7.35;2.30;;;;;;;31.10;26.34;99297.16;5033763;28;20459;-75
2022/08/01 09:41:47;;;;;;;5.43;2.08;;;;;;;31.11;25.83;99302.34;5018040;28;20037;-74
2022/08/01 09:44:17;;;;;;;5.30;1.50;;;;;;;31.10;26.43;99291.69;5032554;28;20084;-74
2022/08/01 09:46:51;;;;;;;5.13;1.70;;;;;;;31.34;26.42;99305.16;5035133;28;20087;-75
2022/08/01 09:49:30;;;;;;;1.67;1.58;;;;;;;31.17;26.03;99297.59;5019137;28;20017;-72
2022/08/01 09:51:58;;;;;;;3.05;1.35;;;;;;;31.16;26.56;99285.03;5034125;28;20060;-72
2022/08/01 09:54:31;;;;;;;10.27;1.88;;;;;;;31.00;27.02;99294.66;5036142;28;20041;-72
2022/08/01 09:57:09;;;;;;;9.50;1.92;;;;;;;31.16;27.05;99293.22;5033922;28;21189;-73
2022/08/01 09:59:37;;;;;;;10.70;2.10;;;;;;;31.21;27.37;99303.25;5016411;28;20072;-75
2022/08/01 10:02:03;;;;;;;6.55;1.60;;;;;;;31.31;27.08;99294.84;5033702;28;20063;-72
2022/08/01 10:04:29;;;;;;;4.97;2.05;;;;;;;31.09;27.13;99276.41;5033988;28;20311;-75
2022/08/01 10:07:04;;;;;;;3.80;2.10;;;;;;;31.24;26.24;99291.72;5034145;28;20742;-75
2022/08/01 10:09:32;;;;;;;8.10;1.27;;;;;;;31.42;26.35;99291.53;5031923;28;20029;-73
2022/08/01 10:11:59;;;;;;;6.00;1.50;;;;;;;31.68;26.52;99280.78;5035658;28;20041;-73
2022/08/01 10:14:25;;;;;;;10.18;1.75;;;;;;;31.78;25.54;99278.94;5033443;28;20033;-72
2022/08/01 10:16:53;;;;;;;3.47;1.40;;;;;;;31.83;25.86;99276.06;5032959;28;20049;-75
2022/08/01 10:19:21;;;;;;;9.25;2.30;;;;;;;31.74;25.85;99276.81;5034934;28;20025;-75
2022/08/01 10:21:50;;;;;;;11.95;2.20;;;;;;;31.55;26.59;99278.91;5033029;28;20078;-75
2022/08/01 10:24:16;;;;;;;11.50;1.75;;;;;;;31.41;26.34;99278.19;5033219;28;20025;-72
2022/08/01 10:26:44;;;;;;;5.43;1.55;;;;;;;31.58;26.65;99288.44;5033657;28;20037;-75
2022/08/01 10:29:10;;;;;;;2.65;1.45;;;;;;;31.47;26.34;99271.47;5034568;28;20029;-75
2022/08/01 10:31:37;;;;;;;5.63;1.52;;;;;;;31.65;26.44;99272.38;5033895;28;20033;-72
2022/08/01 10:34:04;;;;;;;2.75;1.38;;;;;;;31.62;25.86;99264.78;5033475;28;20040;-75
2022/08/01 10:36:31;;;;;;;2.45;1.60;;;;;;;31.49;25.92;99236.38;5035410;28;20034;-74
2022/08/01 10:38:57;;;;;;;4.65;1.38;;;;;;;31.85;26.19;99271.09;5030335;28;20025;-75
2022/08/01 10:41:25;;;;;;;2.72;1.58;;;;;;;31.88;26.30;99276.75;5032528;28;20245;-74
2022/08/01 10:43:51;;;;;;;2.38;1.75;;;;;;;31.94;26.15;99280.94;5034999;28;20135;-74
2022/08/01 10:46:19;;;;;;;5.32;2.03;;;;;;;31.84;26.81;99278.50;5032077;28;20084;-72
2022/08/01 10:49:06;;;;;;;4.63;1.58;;;;;;;31.75;26.87;99281.16;5033278;28;20040;-73
2022/08/01 10:51:38;;;;;;;1.65;1.30;;;;;;;31.84;26.71;99278.50;5032992;28;20037;-75
2022/08/01 10:54:06;;;;;;;3.42;1.40;;;;;;;31.88;26.39;99274.00;5031627;28;20069;-72
2022/08/01 10:56:46;;;;;;;8.57;1.75;;;;;;;31.71;26.69;99276.63;5034185;28;20373;-72
2022/08/01 10:59:27;;;;;;;4.30;1.58;;;;;;;31.64;26.09;99268.03;5034539;28;20391;-75
2022/08/01 11:02:01;;;;;;;4.95;1.50;;;;;;;31.60;27.25;99265.09;5033877;28;20051;-72
2022/08/01 11:05:10;;;;;;;3.38;1.15;;;;;;;31.67;26.29;99272.88;5033310;28;20113;-75
2022/08/01 11:07:58;;;;;;;3.30;1.25;;;;;;;32.01;26.19;99258.59;5004450;28;20045;-72
2022/08/01 11:10:29;;;;;;;5.55;1.52;;;;;;;32.19;25.72;99256.72;5035575;28;20092;-72
2022/08/01 11:12:54;;;;;;;8.13;1.70;;;;;;;32.25;25.29;99258.25;5035571;28;20064;-73
2022/08/01 11:15:25;;;;;;;5.60;1.58;;;;;;;32.37;25.49;99259.28;5038974;28;20029;-75
2022/08/01 11:17:52;;;;;;;3.90;1.58;;;;;;;31.80;26.20;99265.75;5036584;28;20057;-72
2022/08/01 11:20:22;;;;;;;7.93;1.67;;;;;;;31.62;25.98;99262.06;5021428;28;20021;-72
2022/08/01 11:23:06;;;;;;;2.90;1.70;;;;;;;31.77;26.73;99261.69;5037639;28;20022;-72
2022/08/01 11:25:37;;;;;;;3.72;1.58;;;;;;;31.84;26.54;99248.38;5036556;28;20557;-75
2022/08/01 11:28:17;;;;;;;1.83;1.20;;;;;;;32.19;25.83;99257.53;5036136;28;20045;-75
2022/08/01 11:30:45;;;;;;;4.55;1.40;;;;;;;32.04;25.86;99241.53;5037302;28;20039;-75
2022/08/01 11:33:12;;;;;;;7.13;1.73;;;;;;;32.10;25.99;99232.06;5037167;28;20105;-75
2022/08/01 11:36:09;;;;;;;2.63;1.80;;;;;;;32.13;25.72;99256.06;5019382;28;20068;-75